sim
Sign-in with your pilot id or email,
or register
Callsign
Passwort

Schedule Details

Flight Number: UAE52
Departure: Munich Airport (EDDM) at 20:30
Arrival: Dubai International Airport (OMDB) at 02:40
Route: Emirates Passenger Schedule. Enter filed route here before submitting Pirep.

Weather Information
Getting current METAR information for EDDM 280920Z 21003KT 150V270 9999 -RA FEW007 BKN045 08/06 Q1011 NOSIG
Getting current METAR information for OMDB 280900Z 33011KT 300V010 9999 FEW040 36/25 Q1006 NOSIG

Schedule Frequency

Route Map